sensor_id;sensor_type;location;lat;lon;timestamp;P1;durP1;ratioP1;P2;durP2;ratioP2
21833;SDS011;11079;51.092;3.458;2023-04-25T00:01:19;14.32;;;4.53;;
21833;SDS011;11079;51.092;3.458;2023-04-25T00:03:47;19.60;;;5.28;;
21833;SDS011;11079;51.092;3.458;2023-04-25T00:06:13;25.98;;;5.93;;
21833;SDS011;11079;51.092;3.458;2023-04-25T00:08:39;18.17;;;5.30;;
21833;SDS011;11079;51.092;3.458;2023-04-25T00:11:05;18.45;;;5.30;;
21833;SDS011;11079;51.092;3.458;2023-04-25T00:13:31;15.63;;;5.10;;
21833;SDS011;11079;51.092;3.458;2023-04-25T00:15:57;17.52;;;5.80;;
21833;SDS011;11079;51.092;3.458;2023-04-25T00:18:23;16.58;;;5.07;;
21833;SDS011;11079;51.092;3.458;2023-04-25T00:20:48;18.60;;;5.60;;
21833;SDS011;11079;51.092;3.458;2023-04-25T00:23:15;22.00;;;5.07;;
21833;SDS011;11079;51.092;3.458;2023-04-25T00:25:47;20.13;;;5.75;;
21833;SDS011;11079;51.092;3.458;2023-04-25T00:28:14;14.98;;;5.47;;
21833;SDS011;11079;51.092;3.458;2023-04-25T00:30:40;24.75;;;7.45;;
21833;SDS011;11079;51.092;3.458;2023-04-25T00:33:06;16.77;;;5.03;;
21833;SDS011;11079;51.092;3.458;2023-04-25T00:35:32;15.88;;;4.47;;
21833;SDS011;11079;51.092;3.458;2023-04-25T00:37:58;12.77;;;4.78;;
21833;SDS011;11079;51.092;3.458;2023-04-25T00:40:23;19.77;;;6.32;;
21833;SDS011;11079;51.092;3.458;2023-04-25T00:42:50;16.75;;;5.43;;
21833;SDS011;11079;51.092;3.458;2023-04-25T00:45:17;15.45;;;4.53;;
21833;SDS011;11079;51.092;3.458;2023-04-25T00:47:43;21.73;;;5.80;;
21833;SDS011;11079;51.092;3.458;2023-04-25T00:50:10;18.80;;;5.65;;
21833;SDS011;11079;51.092;3.458;2023-04-25T00:52:40;13.20;;;4.60;;
21833;SDS011;11079;51.092;3.458;2023-04-25T00:55:08;19.73;;;4.90;;
21833;SDS011;11079;51.092;3.458;2023-04-25T00:57:36;22.23;;;6.22;;
21833;SDS011;11079;51.092;3.458;2023-04-25T01:00:03;14.50;;;5.63;;
21833;SDS011;11079;51.092;3.458;2023-04-25T01:02:32;18.70;;;6.40;;
21833;SDS011;11079;51.092;3.458;2023-04-25T01:04:59;17.35;;;6.15;;
21833;SDS011;11079;51.092;3.458;2023-04-25T01:07:25;13.70;;;4.75;;
21833;SDS011;11079;51.092;3.458;2023-04-25T01:09:52;16.27;;;4.68;;
21833;SDS011;11079;51.092;3.458;2023-04-25T01:12:18;17.98;;;5.18;;
21833;SDS011;11079;51.092;3.458;2023-04-25T01:14:44;14.93;;;5.28;;
21833;SDS011;11079;51.092;3.458;2023-04-25T01:17:10;21.88;;;4.47;;
21833;SDS011;11079;51.092;3.458;2023-04-25T01:19:37;19.35;;;5.07;;
21833;SDS011;11079;51.092;3.458;2023-04-25T01:22:03;17.25;;;5.63;;
21833;SDS011;11079;51.092;3.458;2023-04-25T01:24:29;11.88;;;4.10;;
21833;SDS011;11079;51.092;3.458;2023-04-25T01:26:58;21.88;;;6.35;;
21833;SDS011;11079;51.092;3.458;2023-04-25T01:29:27;16.45;;;4.07;;
21833;SDS011;11079;51.092;3.458;2023-04-25T01:31:53;14.20;;;5.07;;
21833;SDS011;11079;51.092;3.458;2023-04-25T01:34:19;16.30;;;4.50;;
21833;SDS011;11079;51.092;3.458;2023-04-25T01:36:47;14.95;;;4.65;;
21833;SDS011;11079;51.092;3.458;2023-04-25T01:39:15;20.30;;;4.85;;
21833;SDS011;11079;51.092;3.458;2023-04-25T01:41:42;15.23;;;4.47;;
21833;SDS011;11079;51.092;3.458;2023-04-25T01:44:08;18.05;;;5.45;;
21833;SDS011;11079;51.092;3.458;2023-04-25T01:46:34;11.73;;;4.00;;
21833;SDS011;11079;51.092;3.458;2023-04-25T01:49:00;19.30;;;5.20;;
21833;SDS011;11079;51.092;3.458;2023-04-25T01:51:26;11.93;;;4.38;;
21833;SDS011;11079;51.092;3.458;2023-04-25T01:53:52;16.70;;;4.53;;
21833;SDS011;11079;51.092;3.458;2023-04-25T01:56:18;14.70;;;4.35;;
21833;SDS011;11079;51.092;3.458;2023-04-25T01:58:45;17.75;;;5.05;;
21833;SDS011;11079;51.092;3.458;2023-04-25T02:01:11;16.05;;;4.90;;
21833;SDS011;11079;51.092;3.458;2023-04-25T02:03:37;25.98;;;5.82;;
21833;SDS011;11079;51.092;3.458;2023-04-25T02:06:02;16.95;;;5.28;;
21833;SDS011;11079;51.092;3.458;2023-04-25T02:08:28;20.35;;;6.47;;
21833;SDS011;11079;51.092;3.458;2023-04-25T02:10:55;17.20;;;5.35;;
21833;SDS011;11079;51.092;3.458;2023-04-25T02:13:21;13.30;;;5.70;;
21833;SDS011;11079;51.092;3.458;2023-04-25T02:15:46;18.23;;;5.65;;
21833;SDS011;11079;51.092;3.458;2023-04-25T02:18:12;15.18;;;5.88;;
21833;SDS011;11079;51.092;3.458;2023-04-25T02:20:38;16.17;;;5.68;;
21833;SDS011;11079;51.092;3.458;2023-04-25T02:23:03;18.85;;;6.70;;
21833;SDS011;11079;51.092;3.458;2023-04-25T02:25:29;22.27;;;5.85;;
21833;SDS011;11079;51.092;3.458;2023-04-25T02:27:55;17.48;;;5.65;;
21833;SDS011;11079;51.092;3.458;2023-04-25T02:30:20;15.18;;;6.10;;
21833;SDS011;11079;51.092;3.458;2023-04-25T02:32:46;29.55;;;6.95;;
21833;SDS011;11079;51.092;3.458;2023-04-25T02:35:12;24.85;;;6.97;;
21833;SDS011;11079;51.092;3.458;2023-04-25T02:37:38;20.23;;;6.53;;
21833;SDS011;11079;51.092;3.458;2023-04-25T02:40:05;11.15;;;5.10;;
21833;SDS011;11079;51.092;3.458;2023-04-25T02:42:32;14.95;;;6.05;;
21833;SDS011;11079;51.092;3.458;2023-04-25T02:44:58;14.40;;;5.40;;
21833;SDS011;11079;51.092;3.458;2023-04-25T02:47:23;18.85;;;6.30;;
21833;SDS011;11079;51.092;3.458;2023-04-25T02:49:49;19.90;;;5.50;;
21833;SDS011;11079;51.092;3.458;2023-04-25T02:52:16;21.42;;;5.97;;
21833;SDS011;11079;51.092;3.458;2023-04-25T02:54:41;20.15;;;5.93;;
21833;SDS011;11079;51.092;3.458;2023-04-25T02:57:07;12.60;;;5.25;;
21833;SDS011;11079;51.092;3.458;2023-04-25T02:59:33;13.57;;;4.72;;
21833;SDS011;11079;51.092;3.458;2023-04-25T03:02:00;16.70;;;4.72;;
21833;SDS011;11079;51.092;3.458;2023-04-25T03:04:26;11.13;;;4.63;;
21833;SDS011;11079;51.092;3.458;2023-04-25T03:06:52;10.80;;;4.97;;
21833;SDS011;11079;51.092;3.458;2023-04-25T03:09:19;14.52;;;4.20;;
21833;SDS011;11079;51.092;3.458;2023-04-25T03:11:45;10.40;;;4.63;;
21833;SDS011;11079;51.092;3.458;2023-04-25T03:14:11;13.52;;;4.38;;
21833;SDS011;11079;51.092;3.458;2023-04-25T03:16:37;10.48;;;4.25;;
21833;SDS011;11079;51.092;3.458;2023-04-25T03:19:03;15.70;;;4.45;;
21833;SDS011;11079;51.092;3.458;2023-04-25T03:21:30;18.05;;;4.25;;
21833;SDS011;11079;51.092;3.458;2023-04-25T03:24:00;12.90;;;3.78;;
21833;SDS011;11079;51.092;3.458;2023-04-25T03:26:27;12.88;;;4.10;;
21833;SDS011;11079;51.092;3.458;2023-04-25T03:28:53;17.02;;;4.50;;
21833;SDS011;11079;51.092;3.458;2023-04-25T03:31:19;11.85;;;4.25;;
21833;SDS011;11079;51.092;3.458;2023-04-25T03:33:45;15.27;;;5.13;;
21833;SDS011;11079;51.092;3.458;2023-04-25T03:36:10;14.90;;;4.22;;
21833;SDS011;11079;51.092;3.458;2023-04-25T03:38:36;9.95;;;3.97;;
21833;SDS011;11079;51.092;3.458;2023-04-25T03:41:02;8.77;;;3.72;;
21833;SDS011;11079;51.092;3.458;2023-04-25T03:43:28;11.32;;;3.45;;
21833;SDS011;11079;51.092;3.458;2023-04-25T03:45:53;11.73;;;3.67;;
21833;SDS011;11079;51.092;3.458;2023-04-25T03:48:19;14.05;;;4.28;;
21833;SDS011;11079;51.092;3.458;2023-04-25T03:50:47;11.65;;;4.10;;
21833;SDS011;11079;51.092;3.458;2023-04-25T03:53:13;15.07;;;4.32;;
21833;SDS011;11079;51.092;3.458;2023-04-25T03:55:38;8.38;;;3.33;;
21833;SDS011;11079;51.092;3.458;2023-04-25T03:58:05;9.55;;;3.72;;
21833;SDS011;11079;51.092;3.458;2023-04-25T04:00:30;15.75;;;3.70;;
21833;SDS011;11079;51.092;3.458;2023-04-25T04:02:56;13.07;;;5.00;;
21833;SDS011;11079;51.092;3.458;2023-04-25T04:05:22;14.32;;;4.22;;
21833;SDS011;11079;51.092;3.458;2023-04-25T04:07:48;10.73;;;4.72;;
21833;SDS011;11079;51.092;3.458;2023-04-25T04:10:13;10.35;;;4.05;;
21833;SDS011;11079;51.092;3.458;2023-04-25T04:12:39;10.98;;;3.95;;
21833;SDS011;11079;51.092;3.458;2023-04-25T04:15:05;9.95;;;5.05;;
21833;SDS011;11079;51.092;3.458;2023-04-25T04:17:31;15.38;;;4.65;;
21833;SDS011;11079;51.092;3.458;2023-04-25T04:19:57;14.85;;;5.22;;
21833;SDS011;11079;51.092;3.458;2023-04-25T04:22:23;9.63;;;3.70;;
21833;SDS011;11079;51.092;3.458;2023-04-25T04:24:49;12.45;;;4.63;;
21833;SDS011;11079;51.092;3.458;2023-04-25T04:27:16;12.63;;;4.10;;
21833;SDS011;11079;51.092;3.458;2023-04-25T04:29:43;12.63;;;4.20;;
21833;SDS011;11079;51.092;3.458;2023-04-25T04:32:09;15.38;;;4.00;;
21833;SDS011;11079;51.092;3.458;2023-04-25T04:34:35;7.65;;;3.67;;
21833;SDS011;11079;51.092;3.458;2023-04-25T04:37:01;6.20;;;2.95;;
21833;SDS011;11079;51.092;3.458;2023-04-25T04:39:27;7.57;;;3.00;;
21833;SDS011;11079;51.092;3.458;2023-04-25T04:41:53;9.52;;;3.28;;
21833;SDS011;11079;51.092;3.458;2023-04-25T04:44:19;9.77;;;3.55;;
21833;SDS011;11079;51.092;3.458;2023-04-25T04:46:44;8.60;;;3.70;;
21833;SDS011;11079;51.092;3.458;2023-04-25T04:49:11;8.32;;;3.10;;
21833;SDS011;11079;51.092;3.458;2023-04-25T04:51:38;9.07;;;2.75;;
21833;SDS011;11079;51.092;3.458;2023-04-25T04:54:06;12.75;;;3.40;;
21833;SDS011;11079;51.092;3.458;2023-04-25T04:56:31;8.93;;;3.10;;
21833;SDS011;11079;51.092;3.458;2023-04-25T04:58:58;10.07;;;3.92;;
21833;SDS011;11079;51.092;3.458;2023-04-25T05:01:24;9.85;;;3.35;;
21833;SDS011;11079;51.092;3.458;2023-04-25T05:03:51;8.82;;;3.40;;
21833;SDS011;11079;51.092;3.458;2023-04-25T05:06:17;10.10;;;3.30;;
21833;SDS011;11079;51.092;3.458;2023-04-25T05:08:44;6.95;;;3.00;;
21833;SDS011;11079;51.092;3.458;2023-04-25T05:11:09;8.43;;;3.03;;
21833;SDS011;11079;51.092;3.458;2023-04-25T05:13:37;10.52;;;2.95;;
21833;SDS011;11079;51.092;3.458;2023-04-25T05:16:02;16.42;;;5.50;;
21833;SDS011;11079;51.092;3.458;2023-04-25T05:18:28;18.08;;;5.70;;
21833;SDS011;11079;51.092;3.458;2023-04-25T05:20:54;17.27;;;6.30;;
21833;SDS011;11079;51.092;3.458;2023-04-25T05:23:20;13.60;;;5.35;;
21833;SDS011;11079;51.092;3.458;2023-04-25T05:25:46;14.13;;;4.72;;
21833;SDS011;11079;51.092;3.458;2023-04-25T05:28:12;12.00;;;4.35;;
21833;SDS011;11079;51.092;3.458;2023-04-25T05:30:38;7.55;;;3.80;;
21833;SDS011;11079;51.092;3.458;2023-04-25T05:33:05;10.13;;;4.25;;
21833;SDS011;11079;51.092;3.458;2023-04-25T05:35:31;16.95;;;4.35;;
21833;SDS011;11079;51.092;3.458;2023-04-25T05:37:57;10.30;;;3.70;;
21833;SDS011;11079;51.092;3.458;2023-04-25T05:40:23;9.77;;;3.53;;
21833;SDS011;11079;51.092;3.458;2023-04-25T05:42:48;11.38;;;4.15;;
21833;SDS011;11079;51.092;3.458;2023-04-25T05:45:15;12.25;;;4.13;;
21833;SDS011;11079;51.092;3.458;2023-04-25T05:47:42;15.73;;;6.88;;
21833;SDS011;11079;51.092;3.458;2023-04-25T05:50:08;13.25;;;4.55;;
21833;SDS011;11079;51.092;3.458;2023-04-25T05:52:33;12.48;;;4.20;;
21833;SDS011;11079;51.092;3.458;2023-04-25T05:54:59;11.88;;;3.90;;
21833;SDS011;11079;51.092;3.458;2023-04-25T05:57:25;10.80;;;2.85;;
21833;SDS011;11079;51.092;3.458;2023-04-25T05:59:52;8.70;;;3.25;;
21833;SDS011;11079;51.092;3.458;2023-04-25T06:02:18;6.78;;;2.80;;
21833;SDS011;11079;51.092;3.458;2023-04-25T06:04:45;6.95;;;2.65;;
21833;SDS011;11079;51.092;3.458;2023-04-25T06:07:11;10.43;;;3.50;;
21833;SDS011;11079;51.092;3.458;2023-04-25T06:09:37;9.93;;;2.65;;
21833;SDS011;11079;51.092;3.458;2023-04-25T06:12:04;10.27;;;2.35;;
21833;SDS011;11079;51.092;3.458;2023-04-25T06:14:31;8.13;;;3.10;;
21833;SDS011;11079;51.092;3.458;2023-04-25T06:16:56;8.57;;;2.28;;
21833;SDS011;11079;51.092;3.458;2023-04-25T06:19:22;10.82;;;2.90;;
21833;SDS011;11079;51.092;3.458;2023-04-25T06:21:47;10.00;;;2.97;;
21833;SDS011;11079;51.092;3.458;2023-04-25T06:24:13;12.15;;;4.03;;
21833;SDS011;11079;51.092;3.458;2023-04-25T06:26:39;10.73;;;2.53;;
21833;SDS011;11079;51.092;3.458;2023-04-25T06:29:04;7.88;;;2.28;;
21833;SDS011;11079;51.092;3.458;2023-04-25T06:31:30;9.85;;;2.45;;
21833;SDS011;11079;51.092;3.458;2023-04-25T06:33:58;11.15;;;2.63;;
21833;SDS011;11079;51.092;3.458;2023-04-25T06:36:23;5.93;;;2.05;;
21833;SDS011;11079;51.092;3.458;2023-04-25T06:38:51;5.88;;;2.53;;
21833;SDS011;11079;51.092;3.458;2023-04-25T06:41:20;10.80;;;2.55;;
21833;SDS011;11079;51.092;3.458;2023-04-25T06:43:46;6.38;;;2.33;;
21833;SDS011;11079;51.092;3.458;2023-04-25T06:46:11;11.32;;;3.20;;
21833;SDS011;11079;51.092;3.458;2023-04-25T06:48:37;7.28;;;3.03;;
21833;SDS011;11079;51.092;3.458;2023-04-25T06:51:03;9.15;;;2.08;;
21833;SDS011;11079;51.092;3.458;2023-04-25T06:53:29;7.80;;;2.45;;
21833;SDS011;11079;51.092;3.458;2023-04-25T06:55:55;4.53;;;2.00;;
21833;SDS011;11079;51.092;3.458;2023-04-25T06:58:20;6.30;;;2.05;;
21833;SDS011;11079;51.092;3.458;2023-04-25T07:00:46;10.23;;;2.15;;
21833;SDS011;11079;51.092;3.458;2023-04-25T07:03:11;8.50;;;2.95;;
21833;SDS011;11079;51.092;3.458;2023-04-25T07:05:37;6.60;;;1.70;;
21833;SDS011;11079;51.092;3.458;2023-04-25T07:08:03;7.80;;;2.10;;
21833;SDS011;11079;51.092;3.458;2023-04-25T07:10:29;5.07;;;1.70;;
21833;SDS011;11079;51.092;3.458;2023-04-25T07:12:55;12.10;;;2.25;;
21833;SDS011;11079;51.092;3.458;2023-04-25T07:15:20;5.50;;;1.30;;
21833;SDS011;11079;51.092;3.458;2023-04-25T07:17:46;9.45;;;1.85;;
21833;SDS011;11079;51.092;3.458;2023-04-25T07:20:12;3.50;;;1.13;;
21833;SDS011;11079;51.092;3.458;2023-04-25T07:22:37;5.22;;;1.33;;
21833;SDS011;11079;51.092;3.458;2023-04-25T07:25:03;4.93;;;1.40;;
21833;SDS011;11079;51.092;3.458;2023-04-25T07:27:30;3.45;;;1.40;;
21833;SDS011;11079;51.092;3.458;2023-04-25T07:29:56;10.15;;;1.45;;
21833;SDS011;11079;51.092;3.458;2023-04-25T07:32:22;5.80;;;1.38;;
21833;SDS011;11079;51.092;3.458;2023-04-25T07:34:48;4.68;;;1.20;;
21833;SDS011;11079;51.092;3.458;2023-04-25T07:37:14;6.22;;;1.38;;
21833;SDS011;11079;51.092;3.458;2023-04-25T07:39:40;7.40;;;1.85;;
21833;SDS011;11079;51.092;3.458;2023-04-25T07:42:06;5.30;;;1.58;;
21833;SDS011;11079;51.092;3.458;2023-04-25T07:44:35;9.93;;;2.45;;
21833;SDS011;11079;51.092;3.458;2023-04-25T07:47:05;5.05;;;1.98;;
21833;SDS011;11079;51.092;3.458;2023-04-25T07:49:34;5.32;;;1.48;;
21833;SDS011;11079;51.092;3.458;2023-04-25T07:52:00;4.47;;;1.42;;
21833;SDS011;11079;51.092;3.458;2023-04-25T07:54:27;3.28;;;1.13;;
21833;SDS011;11079;51.092;3.458;2023-04-25T07:56:52;5.05;;;1.45;;
21833;SDS011;11079;51.092;3.458;2023-04-25T07:59:18;4.03;;;1.48;;
21833;SDS011;11079;51.092;3.458;2023-04-25T08:01:44;5.93;;;1.58;;
21833;SDS011;11079;51.092;3.458;2023-04-25T08:04:10;8.10;;;1.90;;
21833;SDS011;11079;51.092;3.458;2023-04-25T08:06:36;5.90;;;1.52;;
21833;SDS011;11079;51.092;3.458;2023-04-25T08:09:02;5.88;;;1.30;;
21833;SDS011;11079;51.092;3.458;2023-04-25T08:11:28;5.93;;;1.20;;
21833;SDS011;11079;51.092;3.458;2023-04-25T08:13:54;3.70;;;1.48;;
21833;SDS011;11079;51.092;3.458;2023-04-25T08:16:19;3.60;;;1.10;;
21833;SDS011;11079;51.092;3.458;2023-04-25T08:18:45;2.83;;;1.02;;
21833;SDS011;11079;51.092;3.458;2023-04-25T08:21:11;4.75;;;1.55;;
21833;SDS011;11079;51.092;3.458;2023-04-25T08:23:37;9.25;;;1.73;;
21833;SDS011;11079;51.092;3.458;2023-04-25T08:26:03;5.80;;;1.17;;
21833;SDS011;11079;51.092;3.458;2023-04-25T08:28:30;5.75;;;1.58;;
21833;SDS011;11079;51.092;3.458;2023-04-25T08:30:56;5.43;;;1.33;;
21833;SDS011;11079;51.092;3.458;2023-04-25T08:33:21;4.57;;;1.35;;
21833;SDS011;11079;51.092;3.458;2023-04-25T08:35:48;5.95;;;1.17;;
21833;SDS011;11079;51.092;3.458;2023-04-25T08:38:15;8.88;;;1.55;;
21833;SDS011;11079;51.092;3.458;2023-04-25T08:43:11;4.03;;;1.27;;
21833;SDS011;11079;51.092;3.458;2023-04-25T08:45:40;5.63;;;1.73;;
21833;SDS011;11079;51.092;3.458;2023-04-25T08:48:13;6.88;;;1.95;;
21833;SDS011;11079;51.092;3.458;2023-04-25T08:50:43;4.25;;;1.48;;
21833;SDS011;11079;51.092;3.458;2023-04-25T08:53:16;3.97;;;1.40;;
21833;SDS011;11079;51.092;3.458;2023-04-25T08:55:45;6.63;;;2.03;;
21833;SDS011;11079;51.092;3.458;2023-04-25T08:58:12;7.93;;;2.00;;
21833;SDS011;11079;51.092;3.458;2023-04-25T09:00:38;4.22;;;1.50;;
21833;SDS011;11079;51.092;3.458;2023-04-25T09:03:04;7.55;;;1.70;;
21833;SDS011;11079;51.092;3.458;2023-04-25T09:05:31;8.05;;;1.90;;
21833;SDS011;11079;51.092;3.458;2023-04-25T09:07:59;7.55;;;2.95;;
21833;SDS011;11079;51.092;3.458;2023-04-25T09:10:26;7.35;;;1.30;;
21833;SDS011;11079;51.092;3.458;2023-04-25T09:13:02;4.60;;;1.55;;
21833;SDS011;11079;51.092;3.458;2023-04-25T09:15:30;6.70;;;1.85;;
21833;SDS011;11079;51.092;3.458;2023-04-25T09:17:56;3.85;;;1.40;;
21833;SDS011;11079;51.092;3.458;2023-04-25T09:20:23;3.97;;;1.52;;
21833;SDS011;11079;51.092;3.458;2023-04-25T09:23:12;5.28;;;1.50;;
21833;SDS011;11079;51.092;3.458;2023-04-25T09:25:37;7.70;;;1.63;;
21833;SDS011;11079;51.092;3.458;2023-04-25T09:28:05;3.47;;;1.40;;
21833;SDS011;11079;51.092;3.458;2023-04-25T09:30:32;4.15;;;0.93;;
21833;SDS011;11079;51.092;3.458;2023-04-25T09:33:08;3.42;;;0.90;;
21833;SDS011;11079;51.092;3.458;2023-04-25T09:35:36;7.00;;;1.30;;
21833;SDS011;11079;51.092;3.458;2023-04-25T09:38:07;2.25;;;0.88;;
21833;SDS011;11079;51.092;3.458;2023-04-25T09:40:40;5.05;;;1.00;;
21833;SDS011;11079;51.092;3.458;2023-04-25T09:43:17;2.13;;;0.60;;
21833;SDS011;11079;51.092;3.458;2023-04-25T09:45:53;1.45;;;0.55;;
21833;SDS011;11079;51.092;3.458;2023-04-25T09:48:22;3.30;;;0.70;;
21833;SDS011;11079;51.092;3.458;2023-04-25T09:51:08;4.85;;;0.90;;
21833;SDS011;11079;51.092;3.458;2023-04-25T09:53:41;1.92;;;0.73;;
21833;SDS011;11079;51.092;3.458;2023-04-25T09:56:08;1.50;;;0.75;;
21833;SDS011;11079;51.092;3.458;2023-04-25T09:58:36;3.47;;;0.88;;
21833;SDS011;11079;51.092;3.458;2023-04-25T10:01:04;2.53;;;0.90;;
21833;SDS011;11079;51.092;3.458;2023-04-25T10:03:32;3.92;;;0.82;;
21833;SDS011;11079;51.092;3.458;2023-04-25T10:06:00;3.67;;;0.90;;
21833;SDS011;11079;51.092;3.458;2023-04-25T10:08:35;1.90;;;1.55;;
21833;SDS011;11079;51.092;3.458;2023-04-25T10:11:02;2.50;;;0.82;;
21833;SDS011;11079;51.092;3.458;2023-04-25T10:13:30;3.38;;;0.80;;
21833;SDS011;11079;51.092;3.458;2023-04-25T10:15:59;1.15;;;0.70;;
21833;SDS011;11079;51.092;3.458;2023-04-25T10:18:27;1.77;;;0.60;;
21833;SDS011;11079;51.092;3.458;2023-04-25T10:20:57;2.95;;;1.02;;
21833;SDS011;11079;51.092;3.458;2023-04-25T10:23:29;3.42;;;0.90;;
21833;SDS011;11079;51.092;3.458;2023-04-25T10:25:55;3.95;;;1.35;;
21833;SDS011;11079;51.092;3.458;2023-04-25T10:28:21;4.80;;;1.08;;
21833;SDS011;11079;51.092;3.458;2023-04-25T10:31:00;2.72;;;1.25;;
21833;SDS011;11079;51.092;3.458;2023-04-25T10:33:34;4.53;;;0.80;;
21833;SDS011;11079;51.092;3.458;2023-04-25T10:36:11;6.03;;;1.50;;
21833;SDS011;11079;51.092;3.458;2023-04-25T10:38:38;4.63;;;0.98;;
21833;SDS011;11079;51.092;3.458;2023-04-25T10:41:05;5.13;;;1.20;;
21833;SDS011;11079;51.092;3.458;2023-04-25T10:43:40;3.25;;;1.00;;
21833;SDS011;11079;51.092;3.458;2023-04-25T10:48:45;3.45;;;1.10;;
21833;SDS011;11079;51.092;3.458;2023-04-25T10:51:17;3.70;;;0.93;;
21833;SDS011;11079;51.092;3.458;2023-04-25T10:54:06;5.03;;;1.02;;
21833;SDS011;11079;51.092;3.458;2023-04-25T10:56:38;3.55;;;1.10;;
21833;SDS011;11079;51.092;3.458;2023-04-25T10:59:16;6.43;;;1.20;;
21833;SDS011;11079;51.092;3.458;2023-04-25T11:01:47;5.03;;;1.85;;
21833;SDS011;11079;51.092;3.458;2023-04-25T11:04:20;3.47;;;1.00;;
21833;SDS011;11079;51.092;3.458;2023-04-25T11:09:42;4.97;;;1.10;;
21833;SDS011;11079;51.092;3.458;2023-04-25T11:12:10;5.32;;;0.90;;
21833;SDS011;11079;51.092;3.458;2023-04-25T11:14:40;2.88;;;1.08;;
21833;SDS011;11079;51.092;3.458;2023-04-25T11:17:05;4.07;;;1.13;;
21833;SDS011;11079;51.092;3.458;2023-04-25T11:19:31;2.45;;;0.95;;
21833;SDS011;11079;51.092;3.458;2023-04-25T11:21:57;2.05;;;0.60;;
21833;SDS011;11079;51.092;3.458;2023-04-25T11:24:33;4.30;;;0.70;;
21833;SDS011;11079;51.092;3.458;2023-04-25T11:27:00;2.63;;;1.38;;
21833;SDS011;11079;51.092;3.458;2023-04-25T11:29:31;2.95;;;0.90;;
21833;SDS011;11079;51.092;3.458;2023-04-25T11:31:58;1.83;;;0.68;;
21833;SDS011;11079;51.092;3.458;2023-04-25T11:34:25;5.43;;;0.98;;
21833;SDS011;11079;51.092;3.458;2023-04-25T11:36:51;3.35;;;0.70;;
21833;SDS011;11079;51.092;3.458;2023-04-25T11:39:21;2.25;;;0.57;;
21833;SDS011;11079;51.092;3.458;2023-04-25T11:41:48;3.67;;;1.10;;
21833;SDS011;11079;51.092;3.458;2023-04-25T11:44:17;3.22;;;1.10;;
21833;SDS011;11079;51.092;3.458;2023-04-25T11:46:43;4.63;;;1.30;;
21833;SDS011;11079;51.092;3.458;2023-04-25T11:49:10;4.65;;;1.38;;
21833;SDS011;11079;51.092;3.458;2023-04-25T11:51:40;6.82;;;1.30;;
21833;SDS011;11079;51.092;3.458;2023-04-25T11:54:06;3.17;;;0.90;;
21833;SDS011;11079;51.092;3.458;2023-04-25T11:56:33;5.50;;;1.20;;
21833;SDS011;11079;51.092;3.458;2023-04-25T11:59:04;5.10;;;1.10;;
21833;SDS011;11079;51.092;3.458;2023-04-25T12:01:35;4.07;;;1.10;;
21833;SDS011;11079;51.092;3.458;2023-04-25T12:04:12;6.07;;;1.08;;
21833;SDS011;11079;51.092;3.458;2023-04-25T12:06:39;5.30;;;1.23;;
21833;SDS011;11079;51.092;3.458;2023-04-25T12:09:09;4.47;;;0.98;;
21833;SDS011;11079;51.092;3.458;2023-04-25T12:11:43;4.78;;;1.25;;
21833;SDS011;11079;51.092;3.458;2023-04-25T12:14:10;7.60;;;1.15;;
21833;SDS011;11079;51.092;3.458;2023-04-25T12:16:40;4.78;;;1.20;;
21833;SDS011;11079;51.092;3.458;2023-04-25T12:19:13;4.43;;;0.95;;
21833;SDS011;11079;51.092;3.458;2023-04-25T12:21:40;7.45;;;1.10;;
21833;SDS011;11079;51.092;3.458;2023-04-25T12:29:22;5.13;;;1.17;;
21833;SDS011;11079;51.092;3.458;2023-04-25T12:31:50;7.05;;;1.75;;
21833;SDS011;11079;51.092;3.458;2023-04-25T12:34:18;3.90;;;1.30;;
21833;SDS011;11079;51.092;3.458;2023-04-25T12:36:45;4.47;;;0.95;;
21833;SDS011;11079;51.092;3.458;2023-04-25T12:39:15;2.83;;;1.23;;
21833;SDS011;11079;51.092;3.458;2023-04-25T12:41:45;3.50;;;1.00;;
21833;SDS011;11079;51.092;3.458;2023-04-25T12:44:11;4.65;;;0.93;;
21833;SDS011;11079;51.092;3.458;2023-04-25T12:46:38;2.70;;;0.88;;
21833;SDS011;11079;51.092;3.458;2023-04-25T12:49:04;6.25;;;1.10;;
21833;SDS011;11079;51.092;3.458;2023-04-25T12:51:32;3.63;;;1.23;;
21833;SDS011;11079;51.092;3.458;2023-04-25T12:53:59;6.38;;;0.90;;
21833;SDS011;11079;51.092;3.458;2023-04-25T12:56:26;1.75;;;0.90;;
21833;SDS011;11079;51.092;3.458;2023-04-25T12:58:52;5.95;;;1.42;;
21833;SDS011;11079;51.092;3.458;2023-04-25T13:01:18;4.63;;;1.25;;
21833;SDS011;11079;51.092;3.458;2023-04-25T13:03:45;6.38;;;1.70;;
21833;SDS011;11079;51.092;3.458;2023-04-25T13:06:11;6.47;;;1.48;;
21833;SDS011;11079;51.092;3.458;2023-04-25T13:08:37;6.45;;;1.52;;
21833;SDS011;11079;51.092;3.458;2023-04-25T13:11:06;4.05;;;1.20;;
21833;SDS011;11079;51.092;3.458;2023-04-25T13:13:33;7.82;;;1.02;;
21833;SDS011;11079;51.092;3.458;2023-04-25T13:16:00;8.68;;;1.50;;
21833;SDS011;11079;51.092;3.458;2023-04-25T13:18:27;4.30;;;1.20;;
21833;SDS011;11079;51.092;3.458;2023-04-25T13:20:53;3.63;;;1.20;;
21833;SDS011;11079;51.092;3.458;2023-04-25T13:23:19;3.72;;;0.98;;
21833;SDS011;11079;51.092;3.458;2023-04-25T13:25:45;7.13;;;1.30;;
21833;SDS011;11079;51.092;3.458;2023-04-25T13:28:12;4.68;;;1.23;;
21833;SDS011;11079;51.092;3.458;2023-04-25T13:30:38;4.38;;;1.20;;
21833;SDS011;11079;51.092;3.458;2023-04-25T13:33:03;5.43;;;1.10;;
21833;SDS011;11079;51.092;3.458;2023-04-25T13:35:31;2.88;;;0.80;;
21833;SDS011;11079;51.092;3.458;2023-04-25T13:37:58;6.32;;;2.22;;
21833;SDS011;11079;51.092;3.458;2023-04-25T13:40:24;3.53;;;0.70;;
21833;SDS011;11079;51.092;3.458;2023-04-25T13:42:50;5.32;;;0.80;;
21833;SDS011;11079;51.092;3.458;2023-04-25T13:45:16;5.80;;;1.05;;
21833;SDS011;11079;51.092;3.458;2023-04-25T13:47:42;4.15;;;0.82;;
21833;SDS011;11079;51.092;3.458;2023-04-25T13:50:07;8.05;;;1.23;;
21833;SDS011;11079;51.092;3.458;2023-04-25T13:52:34;5.90;;;1.33;;
21833;SDS011;11079;51.092;3.458;2023-04-25T13:55:00;5.55;;;1.67;;
21833;SDS011;11079;51.092;3.458;2023-04-25T13:57:28;5.55;;;1.48;;
21833;SDS011;11079;51.092;3.458;2023-04-25T13:59:55;4.32;;;1.27;;
21833;SDS011;11079;51.092;3.458;2023-04-25T14:02:21;4.43;;;1.25;;
21833;SDS011;11079;51.092;3.458;2023-04-25T14:04:46;5.80;;;1.27;;
21833;SDS011;11079;51.092;3.458;2023-04-25T14:07:13;5.75;;;1.52;;
21833;SDS011;11079;51.092;3.458;2023-04-25T14:09:41;5.55;;;0.98;;
21833;SDS011;11079;51.092;3.458;2023-04-25T14:12:07;4.55;;;1.23;;
21833;SDS011;11079;51.092;3.458;2023-04-25T14:14:33;7.50;;;1.15;;
21833;SDS011;11079;51.092;3.458;2023-04-25T14:16:58;5.00;;;1.30;;
21833;SDS011;11079;51.092;3.458;2023-04-25T14:19:24;9.07;;;1.40;;
21833;SDS011;11079;51.092;3.458;2023-04-25T14:21:50;4.22;;;1.33;;
21833;SDS011;11079;51.092;3.458;2023-04-25T14:24:16;6.63;;;1.75;;
21833;SDS011;11079;51.092;3.458;2023-04-25T14:26:43;3.33;;;1.27;;
21833;SDS011;11079;51.092;3.458;2023-04-25T14:29:09;5.25;;;0.90;;
21833;SDS011;11079;51.092;3.458;2023-04-25T14:31:37;5.68;;;1.25;;
21833;SDS011;11079;51.092;3.458;2023-04-25T14:34:04;5.88;;;1.48;;
21833;SDS011;11079;51.092;3.458;2023-04-25T14:36:30;5.93;;;0.98;;
21833;SDS011;11079;51.092;3.458;2023-04-25T14:38:57;5.78;;;1.45;;
21833;SDS011;11079;51.092;3.458;2023-04-25T14:41:24;4.85;;;0.95;;
21833;SDS011;11079;51.092;3.458;2023-04-25T14:43:49;4.07;;;1.00;;
21833;SDS011;11079;51.092;3.458;2023-04-25T14:46:15;3.33;;;1.10;;
21833;SDS011;11079;51.092;3.458;2023-04-25T14:48:41;5.45;;;1.75;;
21833;SDS011;11079;51.092;3.458;2023-04-25T14:51:07;4.97;;;1.10;;
21833;SDS011;11079;51.092;3.458;2023-04-25T14:53:33;5.57;;;1.73;;
21833;SDS011;11079;51.092;3.458;2023-04-25T14:55:59;3.70;;;1.10;;